Flight Track Log - Related Links

Times and Time Zones

All times are in EDT time to prevent confusion due to time zone crossing. See the N888LU flight status page for this flight to view local times or setup timezone preferences in your user account.

Time Position Orientation Groundspeed Altitude Reporting Facility
EDT Latitude Longitude Course Direction KTS MPH feet Rate Location/Type
Thu 08:00:00 AM 37.3167 -79.4615 270° West  Level FlightAware Approximate
Thu 08:01:00 AM 37.3167 -79.5050 270° West  Level FlightAware Approximate
Thu 08:02:00 AM 37.3172 -79.5486 272° West  Level FlightAware Approximate
Thu 08:03:00 AM 37.3186 -79.5921 272° West  Level FlightAware Approximate
Thu 08:04:00 AM 37.3200 -79.6357 272° West  Level FlightAware Approximate
Thu 08:05:00 AM 37.3215 -79.6792 272° West  Level FlightAware Approximate
Thu 08:06:00 AM 37.3229 -79.7227 272° West  Level FlightAware Approximate
Thu 08:07:00 AM 37.3242 -79.7663 272° West  Level FlightAware Approximate
Thu 08:08:00 AM 37.3256 -79.8099 272° West  Level FlightAware Approximate
Thu 08:08:00 AM 37.4344 -79.6067 272° West 97 112 8,000  Level Washington Center
Thu 08:09:00 AM 37.3270 -79.8534 272° West  Level FlightAware Approximate
Thu 08:09:00 AM 37.4436 -79.6439 287° West 116 133 8,000  Level Washington Center
Thu 08:09:58 AM 37.4486 -79.6781 280° West 116 133 8,100  Climbing Washington Center
Thu 08:10:00 AM 37.3283 -79.8969 272° West  Level FlightAware Approximate
Thu 08:10:59 AM 37.4492 -79.7253 271° West 116 133 8,000  Level Washington Center
Thu 08:11:00 AM 37.3296 -79.9405 272° West  Level FlightAware Approximate
Thu 08:11:59 AM 37.4564 -79.7569 286° West 125 144 8,000  Level Washington Center
Thu 08:12:00 AM 37.3309 -79.9840 272° West  Level FlightAware Approximate
Thu 08:12:59 AM 37.4653 -79.7994 285° West 125 144 8,000  Level Washington Center
Thu 08:13:00 AM 37.3322 -80.0276 272° West  Level FlightAware Approximate
Thu 08:14:00 AM 37.4725 -79.8336 285° West 125 144 8,000  Level Washington Center
Thu 08:14:57 AM 37.4792 -79.8811 280° West 125 144 8,000  Level Washington Center
Thu 08:15:58 AM 37.4864 -79.9156 285° West 120 138 8,000  Level Washington Center
Thu 08:16:58 AM 37.4911 -79.9553 279° West 120 138 8,000 50 Level Washington Center
Thu 08:17:59 AM 37.4981 -79.9922 283° West 120 138 8,100  Climbing Washington Center
Thu 08:19:00 AM 37.5031 -80.0292 280° West 120 138 8,000 -50 Descending Washington Center
Thu 08:19:58 AM 37.5097 -80.0689 282° West 120 138 8,000 51 Level Washington Center
Thu 08:20:58 AM 37.5167 -80.1111 282° West 125 144 8,100 50 Climbing Washington Center
Thu 08:21:59 AM 37.5214 -80.1506 279° West 125 144 8,100  Level Washington Center
Thu 08:23:00 AM 37.5300 -80.1958 283° West 125 144 8,100  Level Washington Center
Thu 08:24:00 AM 37.5367 -80.2381 281° West 125 144 8,100  Level Washington Center
Thu 08:24:58 AM 37.5414 -80.2778 279° West 125 144 8,100 -51 Level Washington Center
Thu 08:25:58 AM 37.5503 -80.3200 285° West 125 144 8,000  Descending Washington Center
Thu 08:26:59 AM 37.5742 -80.3478 317° Northwest 120 138 8,100 -50 Climbing Washington Center
Thu 08:27:57 AM 37.6003 -80.3731 323° Northwest 120 138 7,900  Descending Washington Center
Thu 08:28:58 AM 37.6222 -80.4006 315° West 120 138 8,100 98 Climbing Washington Center
Thu 08:29:59 AM 37.6481 -80.4286 319° Northwest 120 138 8,100 -49 Level Washington Center
Thu 08:31:00 AM 37.6700 -80.4561 315° West 120 138 8,000 -50 Descending Washington Center
Thu 08:31:58 AM 37.6978 -80.4894 316° Northwest 120 138 8,000 51 Level Washington Center
Thu 08:32:58 AM 37.7239 -80.5175 320° Northwest 120 138 8,100  Climbing Washington Center
Thu 08:33:59 AM 37.7475 -80.5478 315° West 120 138 8,000 -49 Descending Washington Center
Thu 08:35:00 AM 37.7733 -80.5783 317° Northwest 120 138 8,000  Level Washington Center
Thu 08:35:59 AM 37.7972 -80.6064 317° Northwest 120 138 8,000 51 Level Washington Center
Thu 08:36:57 AM 37.8211 -80.6342 317° Northwest 120 138 8,100  Climbing Washington Center
Thu 08:38:48 AM 37.8733 -80.6867 322° Northwest 125 144 8,000 -69 Descending Indianapolis Center
Thu 08:39:50 AM 37.8972 -80.7167 315° West 122 140 7,900  Descending Indianapolis Center
Thu 08:40:52 AM 37.9225 -80.7442 319° Northwest 120 138 8,000 49 Climbing Indianapolis Center
Thu 08:41:53 AM 37.9467 -80.7739 316° Northwest 122 140 8,000  Level Indianapolis Center
Thu 08:42:55 AM 37.9722 -80.8028 318° Northwest 123 142 8,000  Level Indianapolis Center
Thu 08:43:56 AM 37.9897 -80.8369 303° West 116 133 8,000  Level Indianapolis Center
Thu 08:44:58 AM 38.0036 -80.8736 296° West 115 132 8,000 -48 Level Indianapolis Center
Thu 08:46:00 AM 38.0178 -80.9083 297° West 113 130 7,900  Descending Indianapolis Center
Thu 08:47:01 AM 38.0339 -80.9514 295° West 113 130 8,000 49 Climbing Indianapolis Center
Thu 08:48:03 AM 38.0478 -80.9861 297° West 110 127 8,000  Level Indianapolis Center
Thu 08:49:05 AM 38.0622 -81.0225 297° West 115 132 8,000 -49 Level Indianapolis Center
Thu 08:50:06 AM 38.0772 -81.0578 298° West 115 132 7,900 -49 Descending Indianapolis Center
Thu 08:51:08 AM 38.0911 -81.0950 295° West 116 133 7,900 48 Level Indianapolis Center
Thu 08:52:10 AM 38.1028 -81.1303 293° West 110 127 8,000 49 Climbing Indianapolis Center
Thu 08:53:11 AM 38.1164 -81.1669 295° West 113 130 8,000  Level Indianapolis Center
Thu 08:54:13 AM 38.1292 -81.2044 293° West 114 131 8,000  Level Indianapolis Center
Thu 08:55:15 AM 38.1461 -81.2367 304° West 111 128 8,000  Level Indianapolis Center
Thu 08:56:16 AM 38.1644 -81.2775 300° West 109 125 8,000  Level Indianapolis Center
Thu 08:57:18 AM 38.1744 -81.3131 290° West 107 123 8,000  Level Indianapolis Center
Thu 08:58:20 AM 38.1869 -81.3469 295° West 106 122 8,000  Level Indianapolis Center
Thu 08:59:21 AM 38.1983 -81.3819 293° West 106 122 8,000  Level Indianapolis Center
Thu 09:00:23 AM 38.2125 -81.4142 299° West 104 120 8,000  Level Indianapolis Center
Thu 09:01:25 AM 38.2253 -81.4461 297° West 101 116 8,000  Level Indianapolis Center
Thu 09:02:27 AM 38.2383 -81.4797 296° West 103 119 8,000  Level Indianapolis Center
Thu 09:03:29 AM 38.2539 -81.5122 301° West 107 123 8,000  Level Indianapolis Center
Thu 09:04:30 AM 38.2728 -81.5497 303° West 106 122 8,000  Level Indianapolis Center
Thu 09:05:32 AM 38.2844 -81.5847 293° West 107 123 8,000  Level Indianapolis Center
Thu 09:06:34 AM 38.2969 -81.6197 294° West 109 125 8,000  Level Indianapolis Center
Thu 09:07:36 AM 38.3086 -81.6550 293° West 109 125 8,000  Level Indianapolis Center
Thu 09:08:38 AM 38.3222 -81.6894 297° West 110 127 8,000  Level Indianapolis Center
Thu 09:09:40 AM 38.3358 -81.7239 297° West 108 124 8,000  Level Indianapolis Center
Thu 09:10:41 AM 38.3483 -81.7608 293° West 111 128 8,000  Level Indianapolis Center
Thu 09:11:43 AM 38.3744 -81.7817 328° Northwest 117 135 8,000  Level Indianapolis Center
Thu 09:12:45 AM 38.4086 -81.8039 333° Northwest 116 133 8,000  Level Indianapolis Center
Thu 09:13:47 AM 38.4361 -81.8242 330° Northwest 115 132 8,000 48 Level Indianapolis Center
Thu 09:14:49 AM 38.4625 -81.8458 327° Northwest 113 130 8,100 48 Climbing Indianapolis Center
Thu 09:15:51 AM 38.4925 -81.8628 336° Northwest 117 135 8,100 -48 Level Indianapolis Center
Thu 09:16:53 AM 38.5222 -81.8794 336° Northwest 117 135 8,000 -48 Descending Indianapolis Center
Thu 09:17:55 AM 38.5511 -81.8983 333° Northwest 116 133 8,000  Level Indianapolis Center
Thu 09:18:57 AM 38.5794 -81.9181 331° Northwest 116 133 8,000  Level Indianapolis Center
Thu 09:19:59 AM 38.6094 -81.9367 334° Northwest 119 137 8,000  Level Indianapolis Center
Thu 09:21:01 AM 38.6453 -81.9578 335° Northwest 119 137 8,000  Level Indianapolis Center
Thu 09:22:03 AM 38.6739 -81.9758 334° Northwest 115 132 8,000  Level Indianapolis Center
Thu 09:23:05 AM 38.7028 -81.9950 333° Northwest 116 133 8,000  Level Indianapolis Center
Thu 09:24:07 AM 38.7331 -82.0103 339° North 117 135 8,000  Level Indianapolis Center
Thu 09:25:09 AM 38.7617 -82.0300 332° Northwest 117 135 8,000  Level Indianapolis Center
Thu 09:26:11 AM 38.7919 -82.0417 343° North 114 131 8,000  Level Indianapolis Center
Thu 09:27:13 AM 38.8236 -82.0550 342° North 119 137 8,000  Level Indianapolis Center
Thu 09:28:15 AM 38.8600 -82.0708 341° North 115 132 8,000  Level Indianapolis Center
Thu 09:29:17 AM 38.8925 -82.0794 348° North 117 135 8,000 48 Level Indianapolis Center
Thu 09:30:19 AM 38.9233 -82.0936 340° North 117 135 8,100 48 Climbing Indianapolis Center
Thu 09:31:21 AM 38.9547 -82.1053 344° North 119 137 8,100  Level Indianapolis Center
Thu 09:32:23 AM 38.9881 -82.1189 342° North 123 142 8,100  Level Indianapolis Center
Thu 09:33:25 AM 39.0200 -82.1328 341° North 120 138 8,100 -48 Level Indianapolis Center
Thu 09:34:27 AM 39.0531 -82.1458 343° North 122 140 8,000 -48 Descending Indianapolis Center
Thu 09:35:29 AM 39.0922 -82.1628 341° North 123 142 8,000  Level Indianapolis Center
Thu 09:36:31 AM 39.1256 -82.1767 342° North 125 144 8,000 -48 Level Indianapolis Center
Thu 09:37:33 AM 39.1597 -82.1889 344° North 126 145 7,900  Descending Indianapolis Center
Thu 09:38:35 AM 39.1936 -82.2003 345° North 127 146 8,000 48 Climbing Indianapolis Center
Thu 09:39:37 AM 39.2278 -82.2178 338° Northwest 130 150 8,000  Level Indianapolis Center
Thu 09:40:39 AM 39.2614 -82.2308 343° North 127 146 8,000  Level Indianapolis Center
Thu 09:41:41 AM 39.3050 -82.2456 345° North 133 153 8,000  Level Indianapolis Center
Thu 09:42:43 AM 39.3400 -82.2600 342° North 132 152 8,000 -48 Level Indianapolis Center
Thu 09:43:45 AM 39.3756 -82.2722 345° North 131 151 7,900 -48 Descending Indianapolis Center
Thu 09:44:48 AM 39.4133 -82.2853 345° North 131 151 7,900 48 Level Indianapolis Center
Thu 09:45:49 AM 39.4481 -82.2972 345° North 130 150 8,000 -49 Climbing Indianapolis Center
Thu 09:46:51 AM 39.4803 -82.3192 332° Northwest 132 152 7,800  Descending Indianapolis Center
Thu 09:47:44 AM 39.5053 -82.3542 313° West 141 162 8,000 105 Climbing Indianapolis Center
Thu 09:48:45 AM 39.5322 -82.3894 315° West 137 158 8,000  Level Indianapolis Center
Thu 09:49:46 AM 39.5594 -82.4247 315° West 140 161 8,000  Level Indianapolis Center
Thu 09:50:47 AM 39.5883 -82.4603 317° Northwest 141 162 8,000  Level Indianapolis Center
Thu 09:51:48 AM 39.6156 -82.4956 315° West 140 161 8,000  Level Indianapolis Center
Thu 09:52:43 AM 39.6406 -82.5281 315° West 140 161 8,000  Level Indianapolis Center
Thu 09:53:04 AM 39.6514 -82.5386 323° Northwest 139 160 8,000  Level Indianapolis Center
Thu 09:53:50 AM 39.6758 -82.5672 318° Northwest 140 161 8,000 -97 Level Indianapolis Center
Thu 09:54:06 AM 39.6819 -82.5719 329° Northwest 140 161 7,900 98 Descending Indianapolis Center
Thu 09:54:51 AM 39.7028 -82.5997 314° West 138 159 8,100 97 Climbing Indianapolis Center
Thu 09:55:08 AM 39.7089 -82.6064 320° Northwest 137 158 8,000  Descending Indianapolis Center
Thu 09:55:51 AM 39.7300 -82.6353 314° West 139 160 8,100  Climbing Indianapolis Center
Thu 09:56:10 AM 39.7367 -82.6428 319° Northwest 139 160 8,000 -98 Descending Indianapolis Center
Thu 09:56:52 AM 39.7589 -82.6711 316° Northwest 142 163 8,000 -194 Level Indianapolis Center
Thu 09:57:12 AM 39.7669 -82.6764 333° Northwest 141 162 7,800 -590 Descending Indianapolis Center
Thu 09:57:53 AM 39.7969 -82.6969 332° Northwest 148 170 7,400 -484 Descending Indianapolis Center
Thu 09:58:14 AM 39.8033 -82.7008 335° Northwest 143 165 7,300 -327 Descending Indianapolis Center
Thu 09:58:48 AM 39.8269 -82.7192 329° Northwest 145 167 7,100 -484 Descending Indianapolis Center
Thu 09:59:16 AM 39.8458 -82.7283 340° North 144 166 6,800 -492 Descending Indianapolis Center
Thu 09:59:49 AM 39.8672 -82.7428 333° Northwest 145 167 6,600 -581 Descending Indianapolis Center
Thu 10:00:18 AM 39.8769 -82.7611 305° West 146 168 6,200 -448 Descending Indianapolis Center
Thu 10:00:56 AM 39.8828 -82.7933 283° West 139 160 6,100 -290 Descending Indianapolis Center
Thu 10:01:20 AM 39.8867 -82.8108 286° West 141 162 5,900 -109 Descending Indianapolis Center
Thu 10:01:51 AM 39.8944 -82.8353 293° West 131 151 6,000  Climbing Indianapolis Center
Thu 10:02:22 AM 39.8997 -82.8539 290° West 132 152 5,900  Descending Indianapolis Center
Thu 10:02:52 AM 39.9061 -82.8803 288° West 125 144 6,000  Climbing Indianapolis Center
Thu 10:03:24 AM 39.9117 -82.8983 292° West 129 148 5,900  Descending Indianapolis Center
Thu 10:03:53 AM 39.9178 -82.9250 287° West 131 151 6,000  Climbing Indianapolis Center
Thu 10:04:26 AM 39.9231 -82.9431 291° West 130 150 5,900 -393 Descending Indianapolis Center
Thu 10:04:54 AM 39.9292 -82.9725 285° West 138 159 5,600 -484 Descending Indianapolis Center
Thu 10:05:28 AM 39.9361 -82.9994 289° West 135 155 5,400 -400 Descending Indianapolis Center
Thu 10:05:54 AM 39.9406 -83.0200 286° West 132 152 5,200 -484 Descending Indianapolis Center
Thu 10:06:30 AM 39.9472 -83.0439 290° West 133 153 4,900 -590 Descending Indianapolis Center
Thu 10:06:55 AM 39.9611 -83.0578 323° Northwest 129 148 4,600 -774 Descending Indianapolis Center
Thu 10:07:32 AM 39.9772 -83.0694 331° Northwest 130 150 4,100 -590 Descending Indianapolis Center
Thu 10:07:56 AM 39.9886 -83.0828 318° Northwest 120 138 4,000 -194 Descending Indianapolis Center
Thu 10:08:34 AM 40.0047 -83.0958 328° Northwest 124 143 3,900  Descending Indianapolis Center
Thu 10:08:57 AM 40.0164 -83.1050 329° Northwest 115 132 4,000 -290 Climbing Indianapolis Center
Thu 10:09:36 AM 40.0314 -83.1161 330° Northwest 117 135 3,600 -689 Descending Indianapolis Center
Thu 10:09:58 AM 40.0422 -83.1272 322° Northwest 106 122 3,300 -581 Descending Indianapolis Center
Thu 10:10:38 AM 40.0569 -83.1319 346° North 108 124 3,000 -590 Descending Indianapolis Center
Thu 10:10:59 AM 40.0653 -83.1272 23° Northeast 75 86 2,700 -774 Descending Indianapolis Center
Thu 10:11:40 AM 40.0736 -83.1158 46° Northeast 87 100 2,200 -885 Descending Indianapolis Center
Thu 10:12:00 AM 40.0753 -83.1036 80° East 65 75 1,800 -1,161 Descending Indianapolis Center
Thu 10:12:42 AM 40.0769 -83.0869 83° East 73 84 1,000 -1,143 Descending Indianapolis Center
Thu 10:14:00 AM 40.0798 -83.0732 124° Southeast  Level Estimated
Thu 10:21:00 AM 40.0798 -83.0732 354° North  Level Estimated

Login

Don't have an account? Register now (free) for customized features, flight alerts, and more!